Terminal Aerodrome Forecast
Issued by NWS

Home | Current Version | Previous Version | Text Only | Print | Product List | Glossary On
Versions: 1 2 3 4 5 6 7 8 9 10 11 12 13 14
000
FTUS44 KHGX 191138
TAFCXO
TAF
KCXO 191138Z 1912/2012 00000KT P6SM SKC
      TEMPO 1912/1914 4SM BR
     FM191500 13004KT P6SM BKN250
     FM192100 16006KT P6SM SCT250
     FM200500 00000KT 3SM BR BKN250
      TEMPO 2008/2012 1SM BR=

USA.gov is the U.S. government's official web portal to all federal, state and local government web resources and services.